Etusivu
METAR-TAF:

METAR-TAF

Lentoasemat :

Staples Municipal Airport

Staples, Minnesota, Yhdysvallat

Leveyspiiri: 46-22-51N, Pituuspiiri: 094-48-24W, korkeus merenpinnasta: 392 m

Tämänhetkinen sää

Tämä raportti tehtiin 19 minuuttia sitten, kello 11.15 UTC
tyyntä
Lämpötila -11°C
Kosteus 92%
Ilmanpaine 1015 hPa
Näkyvyys: 1.6 km
selkeää
utua

METAR: KSAZ 241115Z AUTO 00000KT 1SM BR CLR M11/M12 A2998 RMK AO2 VIS 1/2V3

Aika: 05:34 (11:34 UTC)


TAF: puuttuu

Säähavainnot ja -ennusteet yli 4000 lentoasemalta (METAR- ja TAF-raportit).

Käytössä olevat sääasemat on merkitty karttaan keltaisilla ja punaisilla pisteillä.

Aseta hiiri pisteen päälle nähdäksesi sääaseman nimen.

Klikkaa sitten nähdäksesi säähavainnot ja -ennusteet.

Kartan vaihtaminen: klikkaa mustalla rastilla varustettuja vihreitä pisteitä, niin voit zoomata sisään; viivalla varustettua vihreää pistettä, niin voit zoomata ulos tai vihreitä nuolia, niin pääset viereisille kartoille.


METAR-TAF: